Cuneyt Solakoglu — TCTN4 — position and weather

sailwx.info

Track history (hours):
 
Tides and Currents Weather Stations Pressure Air Temp Water Temp Dewpoint Dewpoint Depression Visibility Wind Speed Wind Dir Waves Ship Positions

Cuneyt Solakoglu

Last reported at 2014-Jul-23 04:33 UTC. Time now 2014-Jul-23 05:49 UTC.
Position N 42°47' E 006°15'.

Length 193 m; draft 6.5 m.

Type: Ship (hazmat cat A). MMSI: 271002676.

Date/timePositionNaut miles runAvg speedWind from/ knotsBaromVisibWave heightAir tempDewpointWater temp
2014-Jul-23 04:33N 42°47' E 006°15'1313.1
2014-Jul-23 03:34N 42°39' E 006°30'1212.1
2014-Jul-23 02:33N 42°32' E 006°43'1211.8
2014-Jul-23 01:34N 42°25' E 006°56'1211.7
2014-Jul-23 00:32N 42°18' E 007°09'1312.7
2014-Jul-22 23:33N 42°11' E 007°22'1919.2
2014-Jul-22 22:33N 41°60' E 007°44'2019.4
2014-Jul-22 21:32N 41°48' E 008°05'1919.5
2014-Jul-22 20:33N 41°36' E 008°25'75618.3
2014-Jul-21 03:07N 36°26' E 023°13'1820.4
2014-Jul-21 02:15N 36°41' E 023°25'2320.2
2014-Jul-21 01:07N 37°01' E 023°40'1219.9
2014-Jul-21 00:32N 37°10' E 023°48'8319.8
2014-Jul-20 20:19N 38°18' E 024°49'3720.4
2014-Jul-20 18:29N 38°52' E 025°11'2220.4
2014-Jul-20 17:23N 39°12' E 025°24'204 6.8
2014-Jul-19 11:17N 40°51' E 029°16'0 0.0
2014-Jul-19 10:29N 40°51' E 029°16'  
2014-Jul-13 21:14N 42°40' E 006°28'1319.2
2014-Jul-13 20:33N 42°48' E 006°14'1818.6
2014-Jul-13 19:33N 43°02' E 005°58'5 3.7
2014-Jul-13 18:07N 43°06' E 005°54'0 0.0
2014-Jul-13 07:08N 43°06' E 005°54'0 0.5
2014-Jul-13 06:30N 43°06' E 005°54'1212.0
2014-Jul-13 05:33N 42°56' E 006°01'  
Track history (hours):
 
Tides and Currents Weather Stations Pressure Air Temp Water Temp Dewpoint Dewpoint Depression Visibility Wind Speed Wind Dir Waves Ship Positions

Cuneyt Solakoglu

Last reported at 2014-Jul-23 04:33 UTC. Time now 2014-Jul-23 05:49 UTC.
Position N 42°47' E 006°15'.

Length 193 m; draft 6.5 m.

Type: Ship (hazmat cat A). MMSI: 271002676.

Date/timePositionNaut miles runAvg speedWind from/ knotsBaromVisibWave heightAir tempDewpointWater temp
2014-Jul-23 04:33N 42°47' E 006°15'1313.1
2014-Jul-23 03:34N 42°39' E 006°30'1212.1
2014-Jul-23 02:33N 42°32' E 006°43'1211.8
2014-Jul-23 01:34N 42°25' E 006°56'1211.7
2014-Jul-23 00:32N 42°18' E 007°09'1312.7
2014-Jul-22 23:33N 42°11' E 007°22'1919.2
2014-Jul-22 22:33N 41°60' E 007°44'2019.4
2014-Jul-22 21:32N 41°48' E 008°05'1919.5
2014-Jul-22 20:33N 41°36' E 008°25'75618.3
2014-Jul-21 03:07N 36°26' E 023°13'1820.4
2014-Jul-21 02:15N 36°41' E 023°25'2320.2
2014-Jul-21 01:07N 37°01' E 023°40'1219.9
2014-Jul-21 00:32N 37°10' E 023°48'8319.8
2014-Jul-20 20:19N 38°18' E 024°49'3720.4
2014-Jul-20 18:29N 38°52' E 025°11'2220.4
2014-Jul-20 17:23N 39°12' E 025°24'204 6.8
2014-Jul-19 11:17N 40°51' E 029°16'0 0.0
2014-Jul-19 10:29N 40°51' E 029°16'  
2014-Jul-13 21:14N 42°40' E 006°28'1319.2
2014-Jul-13 20:33N 42°48' E 006°14'1818.6
2014-Jul-13 19:33N 43°02' E 005°58'5 3.7
2014-Jul-13 18:07N 43°06' E 005°54'0 0.0
2014-Jul-13 07:08N 43°06' E 005°54'0 0.5
2014-Jul-13 06:30N 43°06' E 005°54'1212.0
2014-Jul-13 05:33N 42°56' E 006°01'  

Dump ship's entire track history